DLH7CH EDDF-EDDM
Flight info
| Callsign | DLH7CH |
|---|---|
| Flight time | 0h 37m |
| Altitude | 23000 |
| Route | CINDY8S/18 CINDY Z74 HAREM T104 ROKIL ROKIL1B |
| Aircraft | A321/M-SDE3FGHIRWY/LB1 |
Departure
| Time | 2026-05-07 15:13 |
|---|---|
| Airport | Frankfurt Main Airport (EDDF) |
Arrival
| Time | 2026-05-07 15:50 |
|---|---|
| Airport | Munich Airport (EDDM) |
| Time | Latitude | Longitude | Altitude | Speed | Heading |
|---|---|---|---|---|---|
| 2026-05-07 14:38 | 50.04532 | 8.56586 | 362 ft | 0 kts | 116° |
| 2026-05-07 14:58 | 50.04537 | 8.56569 | 360 ft | 4 kts | 120° |
| 2026-05-07 14:58 | 50.04553 | 8.56534 | 362 ft | 4 kts | 132° |
| 2026-05-07 14:59 | 50.04580 | 8.56499 | 363 ft | 4 kts | 154° |
| 2026-05-07 14:59 | 50.04604 | 8.56487 | 364 ft | 4 kts | 181° |
| 2026-05-07 14:59 | 50.04619 | 8.56490 | 361 ft | 1 kts | 203° |
| 2026-05-07 14:59 | 50.04620 | 8.56490 | 361 ft | 0 kts | 203° |
| 2026-05-07 15:03 | 50.04619 | 8.56490 | 356 ft | 1 kts | 203° |
| 2026-05-07 15:03 | 50.04572 | 8.56458 | 357 ft | 13 kts | 205° |
| 2026-05-07 15:03 | 50.04505 | 8.56342 | 356 ft | 16 kts | 249° |
| 2026-05-07 15:03 | 50.04466 | 8.56172 | 362 ft | 17 kts | 248° |
| 2026-05-07 15:04 | 50.04417 | 8.56048 | 357 ft | 14 kts | 210° |
| 2026-05-07 15:04 | 50.04352 | 8.56054 | 358 ft | 0 kts | 160° |
| 2026-05-07 15:05 | 50.04335 | 8.56064 | 356 ft | 11 kts | 161° |
| 2026-05-07 15:05 | 50.04252 | 8.55991 | 356 ft | 17 kts | 248° |
| 2026-05-07 15:05 | 50.04210 | 8.55816 | 355 ft | 18 kts | 249° |
| 2026-05-07 15:06 | 50.04167 | 8.55639 | 362 ft | 17 kts | 250° |
| 2026-05-07 15:06 | 50.04124 | 8.55459 | 363 ft | 19 kts | 249° |
| 2026-05-07 15:06 | 50.04078 | 8.55270 | 365 ft | 19 kts | 249° |
| 2026-05-07 15:06 | 50.04032 | 8.55074 | 363 ft | 20 kts | 250° |
| 2026-05-07 15:07 | 50.03996 | 8.54927 | 368 ft | 10 kts | 245° |
| 2026-05-07 15:07 | 50.03967 | 8.54809 | 362 ft | 14 kts | 251° |
| 2026-05-07 15:07 | 50.03925 | 8.54627 | 362 ft | 23 kts | 249° |
| 2026-05-07 15:07 | 50.03862 | 8.54385 | 361 ft | 25 kts | 241° |
| 2026-05-07 15:08 | 50.03784 | 8.54159 | 368 ft | 23 kts | 249° |
| 2026-05-07 15:08 | 50.03726 | 8.53915 | 367 ft | 25 kts | 250° |
| 2026-05-07 15:08 | 50.03664 | 8.53656 | 360 ft | 27 kts | 249° |
| 2026-05-07 15:08 | 50.03599 | 8.53390 | 368 ft | 26 kts | 250° |
| 2026-05-07 15:09 | 50.03538 | 8.53136 | 365 ft | 23 kts | 249° |
| 2026-05-07 15:09 | 50.03497 | 8.52970 | 369 ft | 13 kts | 249° |
| 2026-05-07 15:09 | 50.03469 | 8.52860 | 374 ft | 9 kts | 247° |
| 2026-05-07 15:09 | 50.03450 | 8.52791 | 378 ft | 5 kts | 246° |
| 2026-05-07 15:10 | 50.03437 | 8.52744 | 379 ft | 6 kts | 248° |
| 2026-05-07 15:10 | 50.03398 | 8.52631 | 379 ft | 15 kts | 222° |
| 2026-05-07 15:10 | 50.03290 | 8.52595 | 374 ft | 2 kts | 179° |
| 2026-05-07 15:12 | 50.03213 | 8.52597 | 372 ft | 42 kts | 180° |
| 2026-05-07 15:13 | 50.02635 | 8.52601 | 368 ft | 120 kts | 179° |
| 2026-05-07 15:13 | 50.01591 | 8.52611 | 455 ft | 169 kts | 179° |
| 2026-05-07 15:13 | 50.00418 | 8.52635 | 1166 ft | 175 kts | 180° |
| 2026-05-07 15:13 | 49.99161 | 8.52677 | 1909 ft | 186 kts | 177° |
| 2026-05-07 15:14 | 49.97824 | 8.52784 | 2548 ft | 201 kts | 170° |
| 2026-05-07 15:14 | 49.96484 | 8.53717 | 2910 ft | 224 kts | 140° |
| 2026-05-07 15:14 | 49.95537 | 8.55723 | 3464 ft | 235 kts | 117° |
| 2026-05-07 15:14 | 49.94742 | 8.57970 | 3939 ft | 239 kts | 118° |
| 2026-05-07 15:15 | 49.94139 | 8.60395 | 4563 ft | 242 kts | 101° |
| 2026-05-07 15:15 | 49.93939 | 8.63108 | 4892 ft | 267 kts | 93° |
| 2026-05-07 15:15 | 49.93790 | 8.65995 | 5592 ft | 275 kts | 98° |
| 2026-05-07 15:15 | 49.93223 | 8.68848 | 6428 ft | 280 kts | 117° |
| 2026-05-07 15:16 | 49.92071 | 8.71294 | 7223 ft | 283 kts | 137° |
| 2026-05-07 15:16 | 49.90503 | 8.73162 | 8027 ft | 286 kts | 146° |
| 2026-05-07 15:16 | 49.88934 | 8.75090 | 8828 ft | 291 kts | 135° |
| 2026-05-07 15:16 | 49.87671 | 8.77579 | 9635 ft | 295 kts | 120° |
| 2026-05-07 15:17 | 49.86658 | 8.80381 | 10356 ft | 301 kts | 119° |
| 2026-05-07 15:17 | 49.85598 | 8.83333 | 10605 ft | 324 kts | 119° |
| 2026-05-07 15:17 | 49.84459 | 8.86491 | 10783 ft | 346 kts | 120° |
| 2026-05-07 15:17 | 49.83258 | 8.89806 | 11291 ft | 356 kts | 120° |
| 2026-05-07 15:18 | 49.82036 | 8.93171 | 11952 ft | 360 kts | 119° |
| 2026-05-07 15:18 | 49.80802 | 8.96562 | 12657 ft | 363 kts | 119° |
| 2026-05-07 15:18 | 49.79568 | 8.99943 | 13342 ft | 367 kts | 119° |
| 2026-05-07 15:18 | 49.78289 | 9.03445 | 14015 ft | 371 kts | 119° |
| 2026-05-07 15:19 | 49.77033 | 9.06904 | 14637 ft | 374 kts | 118° |
| 2026-05-07 15:19 | 49.76001 | 9.10620 | 15210 ft | 379 kts | 107° |
| 2026-05-07 15:19 | 49.75320 | 9.14586 | 15804 ft | 383 kts | 106° |
| 2026-05-07 15:19 | 49.74335 | 9.18419 | 16387 ft | 387 kts | 117° |
| 2026-05-07 15:20 | 49.72876 | 9.21937 | 16971 ft | 390 kts | 129° |
| 2026-05-07 15:20 | 49.71091 | 9.25111 | 17569 ft | 393 kts | 133° |
| 2026-05-07 15:20 | 49.69273 | 9.28293 | 18164 ft | 396 kts | 132° |
| 2026-05-07 15:20 | 49.67444 | 9.31513 | 18701 ft | 399 kts | 132° |
| 2026-05-07 15:21 | 49.65610 | 9.34751 | 19216 ft | 402 kts | 132° |
| 2026-05-07 15:21 | 49.63763 | 9.38008 | 19727 ft | 404 kts | 132° |
| 2026-05-07 15:21 | 49.61903 | 9.41285 | 20252 ft | 407 kts | 132° |
| 2026-05-07 15:21 | 49.60033 | 9.44580 | 20770 ft | 409 kts | 132° |
| 2026-05-07 15:22 | 49.58153 | 9.47894 | 21278 ft | 412 kts | 132° |
| 2026-05-07 15:22 | 49.56278 | 9.51195 | 21703 ft | 416 kts | 132° |
| 2026-05-07 15:22 | 49.54362 | 9.54566 | 22166 ft | 419 kts | 132° |
| 2026-05-07 15:22 | 49.52425 | 9.57966 | 22650 ft | 422 kts | 133° |
| 2026-05-07 15:23 | 49.50477 | 9.61378 | 22990 ft | 425 kts | 133° |
| 2026-05-07 15:23 | 49.48516 | 9.64799 | 23058 ft | 428 kts | 133° |
| 2026-05-07 15:23 | 49.46541 | 9.68243 | 23054 ft | 430 kts | 133° |
| 2026-05-07 15:23 | 49.44565 | 9.71686 | 23056 ft | 430 kts | 133° |
| 2026-05-07 15:24 | 49.42582 | 9.75132 | 23055 ft | 430 kts | 133° |
| 2026-05-07 15:24 | 49.40598 | 9.78573 | 23055 ft | 430 kts | 133° |
| 2026-05-07 15:24 | 49.38620 | 9.82003 | 23057 ft | 430 kts | 133° |
| 2026-05-07 15:24 | 49.36638 | 9.85443 | 23055 ft | 430 kts | 133° |
| 2026-05-07 15:25 | 49.34672 | 9.88845 | 23057 ft | 432 kts | 133° |
| 2026-05-07 15:25 | 49.32670 | 9.92299 | 23056 ft | 433 kts | 133° |
| 2026-05-07 15:25 | 49.30666 | 9.95747 | 23045 ft | 433 kts | 133° |
| 2026-05-07 15:25 | 49.28658 | 9.99197 | 23045 ft | 434 kts | 133° |
| 2026-05-07 15:26 | 49.26651 | 10.02645 | 23048 ft | 434 kts | 133° |
| 2026-05-07 15:26 | 49.24643 | 10.06092 | 23048 ft | 434 kts | 133° |
| 2026-05-07 15:26 | 49.22629 | 10.09543 | 23047 ft | 434 kts | 133° |
| 2026-05-07 15:26 | 49.20609 | 10.13001 | 23046 ft | 434 kts | 133° |
| 2026-05-07 15:27 | 49.18600 | 10.16440 | 23049 ft | 434 kts | 133° |
| 2026-05-07 15:27 | 49.16587 | 10.19884 | 23051 ft | 434 kts | 133° |
| 2026-05-07 15:27 | 49.14576 | 10.23325 | 23051 ft | 434 kts | 133° |
| 2026-05-07 15:27 | 49.12572 | 10.26707 | 23036 ft | 434 kts | 134° |
| 2026-05-07 15:28 | 49.10510 | 10.30074 | 23047 ft | 435 kts | 135° |
| 2026-05-07 15:28 | 49.08418 | 10.33413 | 23053 ft | 435 kts | 135° |
| 2026-05-07 15:28 | 49.06314 | 10.36738 | 23054 ft | 436 kts | 135° |
| 2026-05-07 15:28 | 49.04207 | 10.40067 | 23042 ft | 436 kts | 136° |
| 2026-05-07 15:29 | 49.02103 | 10.43398 | 23043 ft | 436 kts | 135° |
| 2026-05-07 15:29 | 49.00004 | 10.46735 | 23054 ft | 436 kts | 135° |
| 2026-05-07 15:29 | 48.97929 | 10.50044 | 22735 ft | 427 kts | 135° |
| 2026-05-07 15:29 | 48.95893 | 10.53293 | 22098 ft | 421 kts | 135° |
| 2026-05-07 15:30 | 48.93905 | 10.56469 | 21467 ft | 417 kts | 135° |
| 2026-05-07 15:30 | 48.91909 | 10.59656 | 20847 ft | 414 kts | 135° |
| 2026-05-07 15:30 | 48.89930 | 10.62808 | 20240 ft | 411 kts | 135° |
| 2026-05-07 15:30 | 48.87965 | 10.65928 | 19643 ft | 407 kts | 136° |
| 2026-05-07 15:31 | 48.86013 | 10.69021 | 19062 ft | 403 kts | 136° |
| 2026-05-07 15:31 | 48.84079 | 10.72077 | 18492 ft | 399 kts | 136° |
| 2026-05-07 15:31 | 48.82164 | 10.75101 | 17881 ft | 396 kts | 136° |
| 2026-05-07 15:31 | 48.80262 | 10.78108 | 17258 ft | 392 kts | 136° |
| 2026-05-07 15:32 | 48.78379 | 10.81080 | 16656 ft | 388 kts | 136° |
| 2026-05-07 15:32 | 48.76515 | 10.84011 | 16047 ft | 384 kts | 136° |
| 2026-05-07 15:32 | 48.74671 | 10.86904 | 15441 ft | 380 kts | 136° |
| 2026-05-07 15:32 | 48.72865 | 10.89728 | 14873 ft | 376 kts | 136° |
| 2026-05-07 15:33 | 48.71052 | 10.92560 | 14300 ft | 372 kts | 136° |
| 2026-05-07 15:33 | 48.69258 | 10.95361 | 13714 ft | 368 kts | 136° |
| 2026-05-07 15:33 | 48.67482 | 10.98128 | 13084 ft | 364 kts | 136° |
| 2026-05-07 15:33 | 48.65829 | 11.01011 | 12456 ft | 363 kts | 127° |
| 2026-05-07 15:34 | 48.64424 | 11.04183 | 11833 ft | 361 kts | 126° |
| 2026-05-07 15:34 | 48.63042 | 11.07288 | 11254 ft | 357 kts | 126° |
| 2026-05-07 15:34 | 48.61649 | 11.10402 | 11037 ft | 358 kts | 126° |
| 2026-05-07 15:34 | 48.60254 | 11.13518 | 11035 ft | 358 kts | 126° |
| 2026-05-07 15:35 | 48.58854 | 11.16647 | 11030 ft | 359 kts | 126° |
| 2026-05-07 15:35 | 48.57453 | 11.19775 | 11027 ft | 359 kts | 126° |
| 2026-05-07 15:35 | 48.56054 | 11.22897 | 11026 ft | 359 kts | 126° |
| 2026-05-07 15:35 | 48.54671 | 11.25972 | 11031 ft | 359 kts | 126° |
| 2026-05-07 15:36 | 48.53267 | 11.29094 | 11027 ft | 359 kts | 126° |
| 2026-05-07 15:36 | 48.51864 | 11.32211 | 11023 ft | 358 kts | 126° |
| 2026-05-07 15:36 | 48.50464 | 11.35325 | 11029 ft | 358 kts | 126° |
| 2026-05-07 15:36 | 48.49068 | 11.38427 | 11027 ft | 357 kts | 126° |
| 2026-05-07 15:37 | 48.47674 | 11.41523 | 11027 ft | 357 kts | 126° |
| 2026-05-07 15:37 | 48.46279 | 11.44620 | 11027 ft | 357 kts | 126° |
| 2026-05-07 15:37 | 48.45035 | 11.47872 | 11028 ft | 360 kts | 117° |
| 2026-05-07 15:37 | 48.44139 | 11.51397 | 11032 ft | 361 kts | 107° |
| 2026-05-07 15:38 | 48.43623 | 11.55099 | 11029 ft | 362 kts | 98° |
| 2026-05-07 15:38 | 48.43494 | 11.58882 | 11029 ft | 363 kts | 89° |
| 2026-05-07 15:38 | 48.43729 | 11.62662 | 11031 ft | 363 kts | 83° |
| 2026-05-07 15:38 | 48.44032 | 11.66430 | 11029 ft | 363 kts | 83° |
| 2026-05-07 15:39 | 48.44328 | 11.70208 | 11033 ft | 363 kts | 83° |
| 2026-05-07 15:39 | 48.44612 | 11.73932 | 11027 ft | 363 kts | 84° |
| 2026-05-07 15:39 | 48.44901 | 11.77717 | 11029 ft | 363 kts | 83° |
| 2026-05-07 15:39 | 48.45189 | 11.81486 | 11029 ft | 362 kts | 83° |
| 2026-05-07 15:40 | 48.45472 | 11.85220 | 10595 ft | 355 kts | 84° |
| 2026-05-07 15:40 | 48.45742 | 11.88792 | 10418 ft | 330 kts | 84° |
| 2026-05-07 15:40 | 48.45992 | 11.92115 | 10209 ft | 312 kts | 84° |
| 2026-05-07 15:40 | 48.46231 | 11.95321 | 9723 ft | 305 kts | 84° |
| 2026-05-07 15:41 | 48.46466 | 11.98478 | 9111 ft | 302 kts | 83° |
| 2026-05-07 15:41 | 48.46696 | 12.01607 | 8515 ft | 299 kts | 83° |
| 2026-05-07 15:41 | 48.46926 | 12.04709 | 7939 ft | 297 kts | 83° |
| 2026-05-07 15:41 | 48.47155 | 12.07788 | 7388 ft | 294 kts | 83° |
| 2026-05-07 15:42 | 48.47383 | 12.10834 | 6843 ft | 291 kts | 83° |
| 2026-05-07 15:42 | 48.47607 | 12.13860 | 6302 ft | 289 kts | 83° |
| 2026-05-07 15:42 | 48.47826 | 12.16857 | 5743 ft | 286 kts | 83° |
| 2026-05-07 15:42 | 48.47940 | 12.18834 | 5370 ft | 284 kts | 89° |
| 2026-05-07 15:43 | 48.47487 | 12.21652 | 5063 ft | 277 kts | 120° |
| 2026-05-07 15:43 | 48.46205 | 12.23804 | 5005 ft | 278 kts | 149° |
| 2026-05-07 15:43 | 48.43822 | 12.25028 | 5010 ft | 274 kts | 173° |
| 2026-05-07 15:43 | 48.42550 | 12.25339 | 5001 ft | 274 kts | 174° |
| 2026-05-07 15:44 | 48.40665 | 12.25580 | 4996 ft | 270 kts | 189° |
| 2026-05-07 15:44 | 48.38991 | 12.24611 | 5001 ft | 256 kts | 223° |
| 2026-05-07 15:44 | 48.38095 | 12.22509 | 4999 ft | 230 kts | 261° |
| 2026-05-07 15:44 | 48.38294 | 12.20243 | 5016 ft | 223 kts | 293° |
| 2026-05-07 15:45 | 48.38923 | 12.18096 | 5006 ft | 224 kts | 288° |
| 2026-05-07 15:45 | 48.39136 | 12.15779 | 5007 ft | 225 kts | 269° |
| 2026-05-07 15:45 | 48.39022 | 12.13430 | 4991 ft | 224 kts | 265° |
| 2026-05-07 15:45 | 48.38860 | 12.11140 | 4801 ft | 214 kts | 265° |
| 2026-05-07 15:46 | 48.38545 | 12.06895 | 4295 ft | 201 kts | 265° |
| 2026-05-07 15:46 | 48.38391 | 12.04809 | 4032 ft | 201 kts | 264° |
| 2026-05-07 15:46 | 48.38235 | 12.02712 | 4009 ft | 202 kts | 265° |
| 2026-05-07 15:47 | 48.38078 | 12.00598 | 3877 ft | 202 kts | 265° |
| 2026-05-07 15:47 | 48.37922 | 11.98507 | 3635 ft | 199 kts | 265° |
| 2026-05-07 15:47 | 48.37769 | 11.96466 | 3384 ft | 194 kts | 265° |
| 2026-05-07 15:47 | 48.37621 | 11.94497 | 3140 ft | 182 kts | 266° |
| 2026-05-07 15:48 | 48.37487 | 11.92721 | 2911 ft | 159 kts | 265° |
| 2026-05-07 15:48 | 48.37368 | 11.91140 | 2695 ft | 147 kts | 266° |
| 2026-05-07 15:48 | 48.37253 | 11.89612 | 2495 ft | 144 kts | 268° |
| 2026-05-07 15:48 | 48.37140 | 11.88102 | 2285 ft | 147 kts | 266° |
| 2026-05-07 15:49 | 48.37026 | 11.86586 | 2088 ft | 145 kts | 268° |
| 2026-05-07 15:49 | 48.36909 | 11.85049 | 1883 ft | 149 kts | 268° |
| 2026-05-07 15:49 | 48.36798 | 11.83527 | 1694 ft | 148 kts | 266° |
| 2026-05-07 15:49 | 48.36675 | 11.81985 | 1513 ft | 149 kts | 266° |
| 2026-05-07 15:50 | 48.36570 | 11.80545 | 1464 ft | 124 kts | 262° |
| 2026-05-07 15:50 | 48.36490 | 11.79515 | 1465 ft | 76 kts | 264° |
| 2026-05-07 15:50 | 48.36450 | 11.79030 | 1461 ft | 31 kts | 254° |
| 2026-05-07 15:50 | 48.36329 | 11.78763 | 1459 ft | 30 kts | 233° |
| 2026-05-07 15:51 | 48.36276 | 11.78657 | 1463 ft | 1 kts | 233° |
| 2026-05-07 15:51 | 48.36245 | 11.78594 | 1457 ft | 16 kts | 233° |
| 2026-05-07 15:51 | 48.36130 | 11.78484 | 1464 ft | 19 kts | 183° |
| 2026-05-07 15:51 | 48.36050 | 11.78524 | 1464 ft | 13 kts | 121° |
| 2026-05-07 15:52 | 48.36044 | 11.78666 | 1467 ft | 15 kts | 85° |
| 2026-05-07 15:52 | 48.36061 | 11.78834 | 1463 ft | 17 kts | 84° |
| 2026-05-07 15:52 | 48.36072 | 11.79020 | 1468 ft | 19 kts | 85° |
| 2026-05-07 15:52 | 48.36081 | 11.79156 | 1465 ft | 12 kts | 84° |
| 2026-05-07 15:53 | 48.36083 | 11.79280 | 1468 ft | 9 kts | 118° |
| 2026-05-07 15:53 | 48.36031 | 11.79331 | 1463 ft | 0 kts | 159° |
| 2026-05-07 15:53 | 48.36029 | 11.79331 | 1462 ft | 1 kts | 168° |
| 2026-05-07 15:53 | 48.36013 | 11.79333 | 1464 ft | 4 kts | 173° |
| 2026-05-07 15:54 | 48.35984 | 11.79339 | 1462 ft | 5 kts | 172° |
| 2026-05-07 15:54 | 48.35935 | 11.79351 | 1459 ft | 11 kts | 164° |
| 2026-05-07 15:54 | 48.35894 | 11.79448 | 1467 ft | 12 kts | 98° |
| 2026-05-07 15:54 | 48.35841 | 11.79530 | 1467 ft | 11 kts | 181° |
| 2026-05-07 15:55 | 48.35769 | 11.79538 | 1464 ft | 1 kts | 169° |
| 2026-05-07 15:55 | 48.35740 | 11.79550 | 1459 ft | 8 kts | 163° |
| 2026-05-07 15:55 | 48.35716 | 11.79563 | 1460 ft | 6 kts | 159° |
| 2026-05-07 15:55 | 48.35670 | 11.79579 | 1464 ft | 13 kts | 184° |
| 2026-05-07 15:56 | 48.35587 | 11.79576 | 1462 ft | 8 kts | 164° |
| 2026-05-07 15:56 | 48.35576 | 11.79649 | 1459 ft | 9 kts | 86° |
| 2026-05-07 15:56 | 48.35581 | 11.79725 | 1467 ft | 0 kts | 83° |